createdAt,value
2017-11-07T00:00:55.581Z,7.23
2017-11-07T00:02:02.106Z,7.22
2017-11-07T00:03:07.870Z,7.24
2017-11-07T00:04:13.625Z,7.27
2017-11-07T00:05:19.989Z,7.28
2017-11-07T00:06:26.514Z,7.29
2017-11-07T00:07:32.264Z,7.30
2017-11-07T00:08:38.064Z,7.31
2017-11-07T00:09:43.916Z,7.29
2017-11-07T00:10:49.700Z,7.28
2017-11-07T00:11:55.269Z,7.24
2017-11-07T00:13:00.819Z,7.19
2017-11-07T00:14:06.397Z,7.16
2017-11-07T00:15:12.200Z,7.17
2017-11-07T00:16:17.809Z,7.17
2017-11-07T00:17:24.133Z,7.14
2017-11-07T00:18:29.892Z,7.15
2017-11-07T00:19:35.720Z,7.16
2017-11-07T00:20:41.493Z,7.18
2017-11-07T00:21:48.047Z,7.21
2017-11-07T00:22:53.804Z,7.20
2017-11-07T00:23:59.556Z,7.20
2017-11-07T00:25:05.307Z,7.23
2017-11-07T00:26:11.067Z,7.27
2017-11-07T00:27:16.877Z,7.25
2017-11-07T00:28:22.657Z,7.27
2017-11-07T00:29:28.418Z,7.32
2017-11-07T00:30:34.207Z,7.33
2017-11-07T00:31:39.953Z,7.31
2017-11-07T00:32:45.741Z,7.33
2017-11-07T00:33:51.295Z,7.33
2017-11-07T00:34:57.621Z,7.33
2017-11-07T00:36:03.381Z,7.34
2017-11-07T00:37:09.140Z,7.34
2017-11-07T00:38:15.690Z,7.35
2017-11-07T00:39:22.208Z,7.37
2017-11-07T00:40:27.965Z,7.39
2017-11-07T00:41:33.713Z,7.41
2017-11-07T00:42:39.493Z,7.39
2017-11-07T00:43:46.028Z,7.29
2017-11-07T00:44:51.780Z,7.34
2017-11-07T00:45:58.313Z,7.35
2017-11-07T00:47:03.877Z,7.35
2017-11-07T00:48:10.468Z,7.28
2017-11-07T00:49:16.241Z,7.29
2017-11-07T00:50:21.998Z,7.29
2017-11-07T00:51:27.751Z,7.29
2017-11-07T00:52:33.300Z,7.27
2017-11-07T00:53:39.821Z,7.29
2017-11-07T00:54:45.600Z,7.28
2017-11-07T00:55:51.317Z,7.29
2017-11-07T00:56:57.073Z,7.30
2017-11-07T00:58:02.845Z,7.28
2017-11-07T00:59:09.005Z,7.23
2017-11-07T01:00:14.780Z,7.20
2017-11-07T01:01:20.534Z,7.16
2017-11-07T01:02:26.296Z,7.12
2017-11-07T01:03:32.819Z,7.08
2017-11-07T01:04:38.632Z,7.09
2017-11-07T01:05:44.425Z,7.14
2017-11-07T01:06:50.181Z,7.14
2017-11-07T01:07:56.705Z,7.17
2017-11-07T01:09:02.467Z,7.18
2017-11-07T01:10:08.223Z,7.17
2017-11-07T01:11:14.781Z,7.21
2017-11-07T01:12:21.305Z,7.20
2017-11-07T01:13:27.053Z,7.20
2017-11-07T01:14:32.798Z,7.24
2017-11-07T01:15:38.562Z,7.27
2017-11-07T01:16:44.127Z,7.29
2017-11-07T01:17:50.641Z,7.29
2017-11-07T01:18:56.416Z,7.35
2017-11-07T01:20:02.946Z,7.38
2017-11-07T01:21:08.695Z,7.41
2017-11-07T01:22:14.478Z,7.42
2017-11-07T01:23:20.232Z,7.44
2017-11-07T01:24:25.984Z,7.45
2017-11-07T01:25:31.533Z,7.49
2017-11-07T01:26:37.343Z,7.54
2017-11-07T01:27:43.117Z,7.58
2017-11-07T01:28:48.872Z,7.61
2017-11-07T01:29:54.278Z,7.64
2017-11-07T01:30:59.690Z,7.67
2017-11-07T01:32:05.440Z,7.65
2017-11-07T01:33:11.208Z,7.66
2017-11-07T01:34:16.751Z,7.65
2017-11-07T01:35:22.505Z,7.69
2017-11-07T01:36:28.264Z,7.70
2017-11-07T01:37:34.033Z,7.68
2017-11-07T01:38:39.816Z,7.72
2017-11-07T01:39:45.582Z,7.73
2017-11-07T01:40:51.078Z,7.70
2017-11-07T01:41:56.854Z,7.75
2017-11-07T01:43:02.289Z,7.70
2017-11-07T01:44:08.057Z,7.72
2017-11-07T01:45:14.077Z,7.73
2017-11-07T01:46:19.830Z,7.75
2017-11-07T01:47:25.584Z,7.77
2017-11-07T01:48:32.103Z,7.75
2017-11-07T01:49:37.892Z,7.65
2017-11-07T01:50:44.409Z,7.69
2017-11-07T01:51:50.163Z,7.75
2017-11-07T01:52:55.904Z,7.77
2017-11-07T01:54:01.652Z,7.82
2017-11-07T01:55:08.197Z,7.83
2017-11-07T01:56:13.604Z,7.84
2017-11-07T01:57:19.349Z,7.84
2017-11-07T01:58:24.918Z,7.88
2017-11-07T01:59:30.677Z,7.88
2017-11-07T02:00:37.758Z,7.93
2017-11-07T02:01:44.264Z,7.90
2017-11-07T02:02:50.017Z,7.91
2017-11-07T02:03:55.824Z,7.90
2017-11-07T02:05:01.585Z,7.95
2017-11-07T02:06:07.401Z,7.90
2017-11-07T02:07:13.161Z,7.84
2017-11-07T02:08:18.925Z,7.80
2017-11-07T02:09:24.678Z,7.70
2017-11-07T02:10:30.292Z,7.72
2017-11-07T02:11:36.080Z,7.70
2017-11-07T02:12:42.616Z,7.69
2017-11-07T02:13:48.363Z,7.71
2017-11-07T02:14:54.123Z,7.68
2017-11-07T02:16:00.665Z,7.72
2017-11-07T02:17:07.223Z,7.71
2017-11-07T02:18:12.984Z,7.70
2017-11-07T02:19:18.810Z,7.73
2017-11-07T02:20:24.566Z,7.68
2017-11-07T02:21:29.968Z,7.64
2017-11-07T02:22:35.067Z,7.59
2017-11-07T02:23:40.480Z,7.57
2017-11-07T02:24:46.235Z,7.58
2017-11-07T02:25:51.285Z,7.57
2017-11-07T02:26:56.692Z,7.58
2017-11-07T02:28:02.468Z,7.53
2017-11-07T02:29:07.529Z,7.48
2017-11-07T02:30:13.366Z,7.41
2017-11-07T02:31:18.774Z,7.44
2017-11-07T02:32:24.762Z,7.35
2017-11-07T02:33:31.336Z,7.39
2017-11-07T02:34:36.560Z,7.38
2017-11-07T02:35:43.076Z,7.33
2017-11-07T02:36:48.818Z,7.34
2017-11-07T02:37:53.880Z,7.30
2017-11-07T02:38:59.660Z,7.31
2017-11-07T02:40:04.493Z,7.34
2017-11-07T02:41:10.266Z,7.40
2017-11-07T02:42:16.464Z,7.41
2017-11-07T02:43:22.973Z,7.42
2017-11-07T02:44:28.769Z,7.38
2017-11-07T02:45:34.507Z,7.40
2017-11-07T02:46:41.021Z,7.34
2017-11-07T02:47:47.193Z,7.34
2017-11-07T02:48:52.956Z,7.33
2017-11-07T02:49:58.725Z,7.35
2017-11-07T02:51:04.493Z,7.31
2017-11-07T02:52:10.220Z,7.28
2017-11-07T02:53:15.982Z,7.29
2017-11-07T02:54:22.507Z,7.30
2017-11-07T02:55:28.284Z,7.30
2017-11-07T02:56:34.801Z,7.28
2017-11-07T02:57:40.557Z,7.22
2017-11-07T02:58:46.308Z,7.21
2017-11-07T02:59:51.714Z,7.17
2017-11-07T03:00:57.497Z,7.13
2017-11-07T03:02:03.268Z,7.09
2017-11-07T03:03:09.024Z,7.08
2017-11-07T03:04:14.769Z,7.09
2017-11-07T03:05:20.517Z,7.15
2017-11-07T03:06:26.291Z,7.20
2017-11-07T03:07:32.048Z,7.26
2017-11-07T03:08:38.561Z,7.26
2017-11-07T03:09:44.465Z,7.22
2017-11-07T03:10:51.057Z,7.13
2017-11-07T03:11:57.006Z,7.18
2017-11-07T03:13:02.845Z,7.20
2017-11-07T03:14:08.672Z,7.18
2017-11-07T03:15:15.180Z,7.17
2017-11-07T03:16:20.925Z,7.16
2017-11-07T03:17:26.716Z,7.11
2017-11-07T03:18:32.473Z,7.03
2017-11-07T03:19:38.225Z,7.04
2017-11-07T03:20:43.984Z,7.05
2017-11-07T03:21:49.727Z,7.03
2017-11-07T03:22:55.320Z,7.09
2017-11-07T03:24:01.073Z,7.07
2017-11-07T03:25:06.825Z,6.94
2017-11-07T03:26:12.568Z,6.99
2017-11-07T03:27:18.324Z,6.96
2017-11-07T03:28:24.099Z,6.93
2017-11-07T03:29:30.624Z,6.92
2017-11-07T03:30:36.369Z,6.88
2017-11-07T03:31:41.914Z,6.89
2017-11-07T03:32:47.682Z,6.81
2017-11-07T03:33:54.228Z,6.87
2017-11-07T03:34:59.976Z,6.89
2017-11-07T03:36:06.508Z,6.92
2017-11-07T03:37:12.257Z,6.95
2017-11-07T03:38:18.019Z,6.92
2017-11-07T03:39:23.793Z,6.92
2017-11-07T03:40:29.540Z,6.94
2017-11-07T03:41:35.275Z,6.95
2017-11-07T03:42:41.044Z,6.91
2017-11-07T03:43:46.788Z,6.84
2017-11-07T03:44:52.572Z,6.83
2017-11-07T03:45:58.320Z,6.84
2017-11-07T03:47:04.847Z,6.87
2017-11-07T03:48:10.600Z,6.92
2017-11-07T03:49:17.851Z,6.92
2017-11-07T03:50:23.641Z,6.94
2017-11-07T03:51:30.162Z,6.94
2017-11-07T03:52:35.916Z,6.93
2017-11-07T03:53:41.684Z,6.91
2017-11-07T03:54:47.430Z,6.91
2017-11-07T03:55:53.719Z,6.88
2017-11-07T03:56:59.480Z,6.79
2017-11-07T03:58:06.004Z,6.75
2017-11-07T03:59:12.239Z,6.76
2017-11-07T04:00:17.998Z,6.76
2017-11-07T04:01:23.777Z,6.74
2017-11-07T04:02:29.541Z,6.77
2017-11-07T04:03:35.294Z,6.78
2017-11-07T04:04:42.089Z,6.77
2017-11-07T04:05:47.834Z,6.78
2017-11-07T04:06:53.617Z,6.77
2017-11-07T04:08:00.669Z,6.78
2017-11-07T04:09:05.741Z,6.72
2017-11-07T04:10:12.522Z,6.73
2017-11-07T04:11:18.277Z,6.65
2017-11-07T04:12:24.064Z,6.70
2017-11-07T04:13:29.909Z,6.70
2017-11-07T04:14:35.661Z,6.68
2017-11-07T04:15:42.197Z,6.68
2017-11-07T04:16:47.970Z,6.73
2017-11-07T04:17:54.523Z,6.75
2017-11-07T04:19:00.285Z,6.80
2017-11-07T04:20:06.061Z,6.84
2017-11-07T04:21:11.821Z,6.87
2017-11-07T04:22:17.572Z,6.82
2017-11-07T04:23:23.353Z,6.80
2017-11-07T04:24:29.120Z,6.79
2017-11-07T04:25:34.883Z,6.71
2017-11-07T04:26:40.648Z,6.68
2017-11-07T04:27:46.658Z,6.66
2017-11-07T04:28:52.428Z,6.74
2017-11-07T04:29:58.188Z,6.74
2017-11-07T04:31:05.437Z,6.77
2017-11-07T04:32:11.205Z,6.79
2017-11-07T04:33:16.954Z,6.82
2017-11-07T04:34:23.508Z,6.82
2017-11-07T04:35:30.036Z,6.77
2017-11-07T04:36:35.792Z,6.68
2017-11-07T04:37:41.223Z,6.69
2017-11-07T04:38:47.020Z,6.74
2017-11-07T04:39:52.794Z,6.79
2017-11-07T04:40:58.545Z,6.82
2017-11-07T04:42:04.056Z,6.86
2017-11-07T04:43:09.884Z,6.88
2017-11-07T04:44:15.625Z,6.85
2017-11-07T04:45:21.657Z,6.87
2017-11-07T04:46:27.424Z,6.86
2017-11-07T04:47:33.185Z,6.88
2017-11-07T04:48:38.928Z,6.89
2017-11-07T04:49:44.685Z,6.91
2017-11-07T04:50:50.465Z,6.86
2017-11-07T04:51:56.218Z,6.93
2017-11-07T04:53:01.978Z,6.92
2017-11-07T04:54:07.731Z,6.98
2017-11-07T04:55:13.477Z,6.93
2017-11-07T04:56:19.252Z,6.84
2017-11-07T04:57:25.777Z,6.88
2017-11-07T04:58:31.527Z,6.91
2017-11-07T04:59:37.317Z,6.93
2017-11-07T05:00:43.854Z,6.94
2017-11-07T05:01:50.397Z,6.94
2017-11-07T05:02:56.260Z,6.95
2017-11-07T05:04:02.773Z,6.97
2017-11-07T05:05:08.530Z,7.01
2017-11-07T05:06:14.460Z,7.04
2017-11-07T05:07:20.265Z,7.04
2017-11-07T05:08:26.772Z,7.08
2017-11-07T05:09:32.541Z,7.02
2017-11-07T05:10:38.308Z,7.08
2017-11-07T05:11:44.062Z,7.09
2017-11-07T05:12:49.848Z,7.10
2017-11-07T05:13:55.621Z,7.13
2017-11-07T05:15:02.147Z,7.13
2017-11-07T05:16:07.717Z,7.08
2017-11-07T05:17:14.232Z,7.12
2017-11-07T05:18:20.020Z,7.09
2017-11-07T05:19:26.764Z,7.08
2017-11-07T05:20:32.512Z,7.05
2017-11-07T05:21:38.300Z,7.05
2017-11-07T05:22:44.073Z,7.04
2017-11-07T05:23:49.849Z,7.04
2017-11-07T05:24:56.364Z,7.00
2017-11-07T05:26:02.109Z,6.87
2017-11-07T05:27:07.865Z,6.98
2017-11-07T05:28:13.621Z,6.96
2017-11-07T05:29:19.201Z,6.99
2017-11-07T05:30:24.953Z,6.97
2017-11-07T05:31:30.982Z,6.93
2017-11-07T05:32:36.742Z,6.89
2017-11-07T05:33:42.505Z,6.83
2017-11-07T05:34:48.288Z,6.77
2017-11-07T05:35:54.900Z,6.81
2017-11-07T05:37:00.657Z,6.81
2017-11-07T05:38:06.404Z,6.80
2017-11-07T05:39:12.232Z,6.81
2017-11-07T05:40:18.004Z,6.76
2017-11-07T05:41:23.789Z,6.79
2017-11-07T05:42:29.558Z,6.83
2017-11-07T05:43:35.352Z,6.83
2017-11-07T05:44:41.861Z,6.88
2017-11-07T05:45:47.295Z,6.91
2017-11-07T05:46:52.696Z,6.91
2017-11-07T05:47:58.108Z,6.94
2017-11-07T05:49:04.690Z,6.98
2017-11-07T05:50:10.096Z,6.99
2017-11-07T05:51:15.949Z,7.00
2017-11-07T05:52:22.424Z,6.99
2017-11-07T05:53:28.323Z,7.01
2017-11-07T05:54:34.084Z,6.96
2017-11-07T05:55:40.606Z,6.95
2017-11-07T05:56:46.397Z,6.94
2017-11-07T05:57:52.571Z,6.88
2017-11-07T05:58:58.341Z,6.89
2017-11-07T06:00:03.674Z,6.89
2017-11-07T06:01:09.697Z,6.92
2017-11-07T06:02:15.481Z,6.91
2017-11-07T06:03:21.270Z,6.91
2017-11-07T06:04:28.796Z,6.97
2017-11-07T06:05:34.541Z,6.97
2017-11-07T06:06:40.305Z,6.89
2017-11-07T06:07:46.854Z,6.91
2017-11-07T06:08:52.598Z,6.98
2017-11-07T06:09:59.124Z,6.99
2017-11-07T06:11:04.881Z,7.05
2017-11-07T06:12:10.632Z,7.04
2017-11-07T06:13:17.191Z,7.08
2017-11-07T06:14:22.941Z,7.09
2017-11-07T06:15:29.256Z,7.08
2017-11-07T06:16:35.768Z,7.12
2017-11-07T06:17:42.297Z,7.06
2017-11-07T06:18:48.061Z,7.05
2017-11-07T06:19:54.582Z,7.00
2017-11-07T06:21:00.154Z,6.99
2017-11-07T06:22:05.918Z,6.98
2017-11-07T06:23:12.432Z,6.97
2017-11-07T06:24:18.038Z,7.04
2017-11-07T06:25:24.078Z,7.08
2017-11-07T06:26:29.821Z,7.09
2017-11-07T06:27:35.584Z,7.03
2017-11-07T06:28:41.138Z,7.05
2017-11-07T06:29:46.939Z,7.05
2017-11-07T06:30:52.553Z,7.04
2017-11-07T06:31:59.069Z,6.96
2017-11-07T06:33:04.270Z,7.03
2017-11-07T06:34:10.030Z,7.04
2017-11-07T06:35:15.816Z,7.08
2017-11-07T06:36:22.152Z,7.10
2017-11-07T06:37:27.900Z,7.12
2017-11-07T06:38:34.432Z,7.15
2017-11-07T06:39:40.187Z,7.14
2017-11-07T06:40:45.968Z,7.12
2017-11-07T06:41:52.496Z,7.11
2017-11-07T06:42:58.262Z,7.01
2017-11-07T06:44:04.443Z,7.03
2017-11-07T06:45:09.847Z,6.98
2017-11-07T06:46:15.620Z,6.96
2017-11-07T06:47:21.373Z,6.94
2017-11-07T06:48:27.401Z,6.91
2017-11-07T06:49:33.155Z,6.92
2017-11-07T06:50:39.029Z,6.86
2017-11-07T06:51:44.805Z,6.91
2017-11-07T06:52:51.350Z,6.94
2017-11-07T06:53:57.098Z,6.91
2017-11-07T06:55:02.859Z,6.93
2017-11-07T06:56:09.380Z,6.88
2017-11-07T06:57:15.262Z,6.87
2017-11-07T06:58:21.891Z,6.82
2017-11-07T06:59:27.684Z,6.84
2017-11-07T07:00:33.936Z,6.85
2017-11-07T07:01:39.760Z,6.84
2017-11-07T07:02:46.460Z,6.85
2017-11-07T07:03:53.356Z,6.86
2017-11-07T07:04:59.256Z,6.90
2017-11-07T07:06:05.013Z,6.93
2017-11-07T07:07:10.775Z,6.97
2017-11-07T07:08:16.628Z,6.99
2017-11-07T07:09:22.793Z,7.00
2017-11-07T07:10:28.651Z,6.96
2017-11-07T07:11:35.564Z,7.01
2017-11-07T07:12:41.593Z,7.04
2017-11-07T07:13:47.393Z,7.08
2017-11-07T07:14:53.145Z,7.10
2017-11-07T07:15:59.669Z,7.11
2017-11-07T07:17:05.437Z,7.10
2017-11-07T07:18:12.703Z,7.12
2017-11-07T07:19:18.802Z,7.09
2017-11-07T07:20:24.574Z,7.11
2017-11-07T07:21:30.325Z,7.15
2017-11-07T07:22:36.266Z,7.19
2017-11-07T07:23:42.022Z,7.19
2017-11-07T07:24:47.855Z,7.23
2017-11-07T07:25:53.602Z,7.22
2017-11-07T07:26:59.149Z,7.15
2017-11-07T07:28:04.920Z,7.23
2017-11-07T07:29:11.445Z,7.26
2017-11-07T07:30:17.214Z,7.24
2017-11-07T07:31:23.740Z,7.12
2017-11-07T07:32:29.500Z,7.12
2017-11-07T07:33:35.481Z,7.22
2017-11-07T07:34:41.240Z,7.22
2017-11-07T07:35:47.050Z,7.17
2017-11-07T07:36:53.223Z,7.22
2017-11-07T07:37:58.970Z,7.14
2017-11-07T07:39:04.297Z,7.13
2017-11-07T07:40:10.143Z,7.17
2017-11-07T07:41:15.924Z,7.09
2017-11-07T07:42:22.593Z,7.10
2017-11-07T07:43:28.695Z,7.12
2017-11-07T07:44:34.452Z,7.10
2017-11-07T07:45:40.214Z,7.17
2017-11-07T07:46:45.995Z,7.20
2017-11-07T07:47:52.528Z,7.18
2017-11-07T07:48:58.318Z,7.17
2017-11-07T07:50:03.813Z,7.14
2017-11-07T07:51:09.597Z,7.11
2017-11-07T07:52:15.442Z,7.07
2017-11-07T07:53:21.255Z,7.13
2017-11-07T07:54:27.764Z,7.22
2017-11-07T07:55:33.517Z,7.25
2017-11-07T07:56:39.299Z,7.29
2017-11-07T07:57:45.853Z,7.23
2017-11-07T07:58:51.645Z,7.31
2017-11-07T07:59:57.406Z,7.32
2017-11-07T08:01:03.164Z,7.32
2017-11-07T08:02:08.920Z,7.31
2017-11-07T08:03:15.486Z,7.27
2017-11-07T08:04:22.010Z,7.20
2017-11-07T08:05:27.088Z,7.24
2017-11-07T08:06:33.220Z,7.33
2017-11-07T08:07:40.496Z,7.35
2017-11-07T08:08:46.101Z,7.43
2017-11-07T08:09:51.857Z,7.39
2017-11-07T08:10:57.362Z,7.47
2017-11-07T08:12:02.768Z,7.53
2017-11-07T08:13:08.571Z,7.57
2017-11-07T08:14:15.759Z,7.61
2017-11-07T08:15:22.120Z,7.65
2017-11-07T08:16:27.933Z,7.71
2017-11-07T08:17:33.727Z,7.76
2017-11-07T08:18:40.529Z,7.80
2017-11-07T08:19:46.389Z,7.76
2017-11-07T08:20:52.150Z,7.69
2017-11-07T08:21:58.668Z,7.68
2017-11-07T08:23:04.440Z,7.70
2017-11-07T08:24:10.202Z,7.79
2017-11-07T08:25:16.995Z,7.84
2017-11-07T08:26:23.247Z,7.94
2017-11-07T08:27:29.475Z,7.96
2017-11-07T08:28:36.365Z,7.93
2017-11-07T08:29:42.393Z,8.02
2017-11-07T08:30:49.042Z,8.07
2017-11-07T08:31:55.738Z,8.10
2017-11-07T08:33:01.736Z,8.15
2017-11-07T08:34:07.532Z,8.13
2017-11-07T08:35:13.585Z,8.20
2017-11-07T08:36:19.591Z,8.24
2017-11-07T08:37:26.286Z,8.13
2017-11-07T08:38:32.336Z,8.12
2017-11-07T08:39:38.188Z,8.08
2017-11-07T08:40:43.946Z,8.03
2017-11-07T08:41:49.726Z,8.02
2017-11-07T08:42:55.712Z,7.99
2017-11-07T08:44:01.553Z,8.03
2017-11-07T08:45:07.462Z,8.01
2017-11-07T08:46:14.084Z,8.01
2017-11-07T08:47:20.010Z,7.96
2017-11-07T08:48:25.650Z,8.06
2017-11-07T08:49:31.426Z,8.12
2017-11-07T08:50:37.370Z,8.06
2017-11-07T08:51:43.220Z,8.03
2017-11-07T08:52:49.325Z,8.11
2017-11-07T08:53:55.361Z,8.12
2017-11-07T08:55:02.120Z,8.18
2017-11-07T08:56:08.089Z,8.18
2017-11-07T08:57:13.957Z,8.24
2017-11-07T08:58:20.078Z,8.27
2017-11-07T08:59:26.332Z,8.32
2017-11-07T09:00:32.312Z,8.26
2017-11-07T09:01:38.633Z,8.31
2017-11-07T09:02:44.478Z,8.34
2017-11-07T09:03:50.302Z,8.37
2017-11-07T09:04:56.860Z,8.42
2017-11-07T09:06:03.495Z,8.45
2017-11-07T09:07:09.456Z,8.45
2017-11-07T09:08:16.077Z,8.48
2017-11-07T09:09:21.634Z,8.50
2017-11-07T09:10:27.676Z,8.52
2017-11-07T09:11:33.621Z,8.51
2017-11-07T09:12:41.254Z,8.54
2017-11-07T09:13:47.056Z,8.53
2017-11-07T09:14:53.032Z,8.59
2017-11-07T09:15:59.178Z,8.66
2017-11-07T09:17:05.868Z,8.70
2017-11-07T09:18:11.781Z,8.60
2017-11-07T09:19:19.280Z,8.69
2017-11-07T09:20:26.378Z,8.78
2017-11-07T09:21:32.412Z,8.77
2017-11-07T09:22:38.238Z,8.78
2017-11-07T09:23:44.781Z,8.81
2017-11-07T09:24:51.098Z,8.79
2017-11-07T09:25:56.873Z,8.86
2017-11-07T09:27:02.723Z,8.85
2017-11-07T09:28:08.597Z,8.88
2017-11-07T09:29:14.608Z,8.89
2017-11-07T09:30:20.361Z,8.90
2017-11-07T09:31:26.545Z,8.94
2017-11-07T09:32:32.297Z,8.96
2017-11-07T09:33:38.325Z,8.86
2017-11-07T09:34:44.895Z,8.91
2017-11-07T09:35:50.661Z,8.92
2017-11-07T09:36:56.482Z,8.91
2017-11-07T09:38:02.424Z,8.92
2017-11-07T09:39:08.272Z,8.89
2017-11-07T09:40:14.180Z,8.97
2017-11-07T09:41:20.040Z,8.99
2017-11-07T09:42:26.686Z,9.00
2017-11-07T09:43:33.493Z,9.03
2017-11-07T09:44:40.318Z,9.05
2017-11-07T09:45:46.718Z,9.03
2017-11-07T09:46:52.540Z,9.01
2017-11-07T09:47:59.142Z,9.02
2017-11-07T09:49:05.008Z,9.07
2017-11-07T09:50:10.903Z,9.10
2017-11-07T09:51:16.814Z,9.06
2017-11-07T09:52:23.641Z,9.02
2017-11-07T09:53:29.420Z,8.99
2017-11-07T09:54:35.942Z,8.93
2017-11-07T09:55:41.759Z,8.96
2017-11-07T09:56:47.502Z,8.98
2017-11-07T09:57:53.345Z,9.03
2017-11-07T09:58:59.129Z,9.01
2017-11-07T10:00:05.034Z,9.08
2017-11-07T10:01:10.796Z,9.15
2017-11-07T10:02:16.816Z,9.12
2017-11-07T10:03:23.138Z,9.17
2017-11-07T10:04:29.273Z,9.20
2017-11-07T10:05:36.284Z,9.20
2017-11-07T10:06:42.101Z,9.22
2017-11-07T10:07:47.878Z,9.30
2017-11-07T10:08:53.661Z,9.36
2017-11-07T10:09:59.280Z,9.36
2017-11-07T10:11:05.134Z,9.36
2017-11-07T10:12:10.897Z,9.36
2017-11-07T10:13:16.669Z,9.39
2017-11-07T10:14:23.372Z,9.40
2017-11-07T10:15:29.193Z,9.34
2017-11-07T10:16:34.762Z,9.42
2017-11-07T10:17:39.829Z,9.43
2017-11-07T10:18:45.638Z,9.42
2017-11-07T10:19:51.462Z,9.39
2017-11-07T10:20:57.514Z,9.42
2017-11-07T10:22:03.129Z,9.45
2017-11-07T10:23:09.695Z,9.46
2017-11-07T10:24:16.434Z,9.43
2017-11-07T10:25:22.333Z,9.35
2017-11-07T10:26:28.530Z,9.37
2017-11-07T10:27:34.419Z,9.41
2017-11-07T10:28:40.294Z,9.40
2017-11-07T10:29:45.723Z,9.36
2017-11-07T10:30:51.502Z,9.21
2017-11-07T10:31:58.200Z,9.32
2017-11-07T10:33:03.981Z,9.33
2017-11-07T10:34:09.728Z,9.33
2017-11-07T10:35:15.332Z,9.35
2017-11-07T10:36:20.950Z,9.34
2017-11-07T10:37:26.990Z,9.40
2017-11-07T10:38:33.177Z,9.44
2017-11-07T10:39:38.993Z,9.47
2017-11-07T10:40:44.740Z,9.48
2017-11-07T10:41:50.516Z,9.54
2017-11-07T10:42:56.371Z,9.58
2017-11-07T10:44:02.141Z,9.55
2017-11-07T10:45:08.704Z,9.58
2017-11-07T10:46:15.269Z,9.60
2017-11-07T10:47:21.802Z,9.59
2017-11-07T10:48:27.585Z,9.57
2017-11-07T10:49:33.167Z,9.58
2017-11-07T10:50:38.982Z,9.57
2017-11-07T10:51:44.805Z,9.62
2017-11-07T10:52:50.585Z,9.61
2017-11-07T10:53:56.477Z,9.67
2017-11-07T10:55:01.959Z,9.67
2017-11-07T10:56:07.281Z,9.71
2017-11-07T10:57:12.393Z,9.75
2017-11-07T10:58:17.985Z,9.81
2017-11-07T10:59:23.954Z,9.80
2017-11-07T11:00:29.534Z,9.83
2017-11-07T11:01:35.422Z,9.82
2017-11-07T11:02:41.525Z,9.86
2017-11-07T11:03:47.330Z,9.87
2017-11-07T11:04:52.760Z,9.98
2017-11-07T11:05:59.835Z,9.96
2017-11-07T11:07:07.227Z,9.95
2017-11-07T11:08:13.772Z,9.97
2017-11-07T11:09:19.537Z,10.00
2017-11-07T11:10:25.918Z,9.95
2017-11-07T11:11:31.756Z,9.95
2017-11-07T11:12:37.549Z,9.97
2017-11-07T11:13:43.227Z,9.99
2017-11-07T11:14:49.765Z,10.00
2017-11-07T11:15:55.720Z,10.02
2017-11-07T11:17:01.513Z,10.05
2017-11-07T11:18:07.306Z,10.10
2017-11-07T11:19:13.882Z,10.10
2017-11-07T11:20:19.926Z,10.07
2017-11-07T11:21:26.537Z,10.13
2017-11-07T11:22:32.293Z,10.11
2017-11-07T11:23:38.089Z,10.10
2017-11-07T11:24:43.910Z,10.09
2017-11-07T11:25:50.473Z,10.10
2017-11-07T11:26:57.062Z,10.14
2017-11-07T11:28:02.872Z,10.16
2017-11-07T11:29:09.768Z,10.23
2017-11-07T11:30:15.561Z,10.26
2017-11-07T11:31:21.555Z,10.29
2017-11-07T11:32:27.240Z,10.30
2017-11-07T11:33:34.101Z,10.28
2017-11-07T11:34:39.900Z,10.30
2017-11-07T11:35:45.670Z,10.33
2017-11-07T11:36:51.429Z,10.26
2017-11-07T11:37:57.224Z,10.25
2017-11-07T11:39:02.984Z,10.14
2017-11-07T11:40:08.752Z,10.01
2017-11-07T11:41:14.508Z,10.02
2017-11-07T11:42:20.321Z,9.93
2017-11-07T11:43:26.099Z,9.98
2017-11-07T11:44:31.863Z,9.87
2017-11-07T11:45:37.922Z,9.88
2017-11-07T11:46:43.741Z,9.85
2017-11-07T11:47:49.600Z,9.88
2017-11-07T11:48:55.660Z,9.98
2017-11-07T11:50:01.594Z,10.04
2017-11-07T11:51:08.272Z,10.11
2017-11-07T11:52:14.124Z,10.12
2017-11-07T11:53:19.912Z,10.20
2017-11-07T11:54:25.453Z,10.25
2017-11-07T11:55:31.293Z,10.24
2017-11-07T11:56:37.069Z,10.28
2017-11-07T11:57:43.782Z,10.28
2017-11-07T11:58:49.380Z,10.31
2017-11-07T11:59:55.224Z,10.31
2017-11-07T12:01:00.650Z,10.28
2017-11-07T12:02:06.582Z,10.27
2017-11-07T12:03:12.777Z,10.27
2017-11-07T12:04:18.594Z,10.16
2017-11-07T12:05:24.373Z,10.06
2017-11-07T12:06:30.181Z,10.18
2017-11-07T12:07:35.944Z,10.21
2017-11-07T12:08:41.848Z,10.20
2017-11-07T12:09:48.650Z,10.28
2017-11-07T12:10:54.794Z,10.27
2017-11-07T12:12:01.142Z,10.31
2017-11-07T12:13:07.089Z,10.28
2017-11-07T12:14:13.143Z,10.31
2017-11-07T12:15:19.654Z,10.31
2017-11-07T12:16:26.425Z,10.40
2017-11-07T12:17:33.295Z,10.46
2017-11-07T12:18:39.218Z,10.40
2017-11-07T12:19:45.000Z,10.25
2017-11-07T12:20:51.525Z,10.29
2017-11-07T12:21:57.419Z,10.28
2017-11-07T12:23:03.177Z,10.24
2017-11-07T12:24:08.934Z,10.30
2017-11-07T12:25:14.693Z,10.30
2017-11-07T12:26:20.297Z,10.32
2017-11-07T12:27:26.097Z,10.31
2017-11-07T12:28:32.858Z,10.29
2017-11-07T12:29:38.795Z,10.27
2017-11-07T12:30:44.782Z,10.23
2017-11-07T12:31:50.727Z,10.22
2017-11-07T12:32:56.728Z,10.27
2017-11-07T12:34:02.801Z,10.28
2017-11-07T12:35:09.490Z,10.19
2017-11-07T12:36:14.919Z,10.16
2017-11-07T12:37:20.741Z,10.11
2017-11-07T12:38:26.724Z,10.17
2017-11-07T12:39:32.962Z,10.13
2017-11-07T12:40:38.914Z,10.16
2017-11-07T12:41:45.682Z,10.21
2017-11-07T12:42:51.624Z,10.17
2017-11-07T12:43:57.393Z,10.22
2017-11-07T12:45:03.378Z,10.23
2017-11-07T12:46:09.324Z,10.10
2017-11-07T12:47:16.139Z,10.06
2017-11-07T12:48:21.966Z,10.08
2017-11-07T12:49:27.921Z,10.11
2017-11-07T12:50:50.357Z,10.05
2017-11-07T12:52:02.700Z,9.85
2017-11-07T12:53:08.817Z,9.77
2017-11-07T12:54:14.317Z,9.79
2017-11-07T12:55:20.901Z,9.72
2017-11-07T12:56:26.698Z,9.83
2017-11-07T12:57:32.687Z,9.85
2017-11-07T12:58:38.476Z,9.85
2017-11-07T12:59:44.455Z,9.99
2017-11-07T13:00:50.637Z,9.99
2017-11-07T13:01:56.663Z,10.06
2017-11-07T13:03:03.561Z,10.09
2017-11-07T13:04:09.542Z,10.08
2017-11-07T13:05:16.407Z,9.99
2017-11-07T13:06:22.350Z,10.03
2017-11-07T13:07:28.180Z,9.97
2017-11-07T13:08:34.107Z,9.95
2017-11-07T13:09:40.120Z,9.90
2017-11-07T13:10:46.807Z,9.86
2017-11-07T13:11:52.961Z,9.80
2017-11-07T13:12:59.013Z,9.74
2017-11-07T13:14:05.057Z,9.70
2017-11-07T13:15:11.822Z,9.82
2017-11-07T13:16:17.820Z,9.97
2017-11-07T13:17:24.738Z,10.06
2017-11-07T13:18:30.790Z,10.04
2017-11-07T13:19:36.937Z,10.08
2017-11-07T13:20:42.530Z,10.11
2017-11-07T13:21:48.435Z,10.13
2017-11-07T13:22:54.472Z,10.11
2017-11-07T13:24:00.622Z,10.16
2017-11-07T13:25:06.745Z,10.13
2017-11-07T13:26:13.655Z,10.11
2017-11-07T13:27:19.644Z,9.99
2017-11-07T13:28:26.655Z,10.03
2017-11-07T13:29:32.472Z,10.13
2017-11-07T13:30:38.249Z,10.21
2017-11-07T13:31:44.009Z,10.15
2017-11-07T13:32:49.782Z,10.14
2017-11-07T13:33:55.567Z,10.08
2017-11-07T13:35:01.802Z,10.15
2017-11-07T13:36:08.466Z,10.17
2017-11-07T13:37:15.265Z,10.07
2017-11-07T13:38:21.394Z,9.99
2017-11-07T13:40:53.878Z,10.05
2017-11-07T13:42:00.746Z,10.06
2017-11-07T13:43:06.646Z,9.97
2017-11-07T13:44:13.454Z,9.92
2017-11-07T13:45:19.601Z,10.05
2017-11-07T13:46:25.755Z,10.06
2017-11-07T13:47:31.787Z,10.13
2017-11-07T13:48:37.859Z,10.11
2017-11-07T13:49:43.827Z,10.01
2017-11-07T13:50:50.568Z,10.05
2017-11-07T13:51:56.711Z,9.94
2017-11-07T13:53:02.761Z,9.98
2017-11-07T13:54:08.778Z,9.98
2017-11-07T13:55:15.507Z,10.06
2017-11-07T13:56:21.405Z,10.07
2017-11-07T13:57:27.565Z,10.12
2017-11-07T13:58:33.350Z,10.14
2017-11-07T13:59:39.304Z,10.28
2017-11-07T14:00:45.136Z,10.22
2017-11-07T14:01:50.968Z,10.25
2017-11-07T14:02:56.753Z,10.30
2017-11-07T14:04:02.557Z,10.10
2017-11-07T14:05:08.400Z,10.08
2017-11-07T14:06:14.166Z,10.13
2017-11-07T14:07:21.000Z,10.16
2017-11-07T14:08:26.825Z,10.16
2017-11-07T14:09:32.831Z,10.22
2017-11-07T14:10:38.814Z,10.19
2017-11-07T14:11:44.615Z,10.11
2017-11-07T14:12:53.052Z,10.04
2017-11-07T14:13:58.829Z,10.20
2017-11-07T14:15:04.803Z,10.21
2017-11-07T14:16:11.419Z,10.21
2017-11-07T14:17:17.304Z,10.18
2017-11-07T14:18:23.212Z,10.17
2017-11-07T14:19:29.234Z,10.26
2017-11-07T14:20:35.915Z,10.27
2017-11-07T14:21:42.523Z,10.22
2017-11-07T14:22:48.373Z,10.16
2017-11-07T14:23:54.222Z,10.15
2017-11-07T14:25:00.167Z,10.15
2017-11-07T14:26:05.654Z,10.10
2017-11-07T14:27:11.810Z,10.12
2017-11-07T14:28:17.623Z,10.13
2017-11-07T14:29:23.407Z,9.98
2017-11-07T14:30:29.548Z,9.95
2017-11-07T14:31:35.497Z,10.02
2017-11-07T14:32:41.137Z,9.97
2017-11-07T14:33:48.269Z,9.88
2017-11-07T14:34:54.327Z,9.92